Latest Weather Observations for Albany Airport

IDW60801

Issued at 5:14 pm WST Sunday 29 March 2015 (issued every 30 minutes, with the page automatically refreshed every 10 minutes)

About weather observations | Map of weather stations | Latest weather observations for WA | Other Formats
Station Details ID: 009999 Name: ALBANY AIRPORT Lat: -34.94 Lon: 117.82 Height: 68.4 m
Data from the previous 72 hours. | See also: Recent months at Albany Airport
Date/Time
WST
Temp
°C
App
Temp
°C
Dew
Point
Rel
Hum
%
Delta-T
°C
Wind Press
QNH
hPa
Press
MSL
hPa
Rain
since 9 am
mm
Dir
 
Spd
km/h
Gust
km/h
Spd
kts
Gust
kts
29/05:00pm 20.3 18.0 14.1 67 3.6 ESE 19 22 10 12 1018.6 - 0.0
29/04:30pm 21.0 18.5 14.1 64 4.0 ESE 20 24 11 13 1018.7 - 0.0
29/04:00pm 22.2 20.1 14.6 62 4.5 ESE 19 24 10 13 1018.7 - 0.0
29/03:30pm 22.6 20.3 14.2 59 4.9 ESE 19 26 10 14 1018.6 - 0.0
29/03:00pm 23.3 21.8 14.1 56 5.4 SSE 15 20 8 11 1018.7 1018.7 0.0
29/02:30pm 23.9 22.8 14.2 54 5.7 S 13 20 7 11 1018.8 - 0.0
29/02:00pm 23.7 23.0 14.2 55 5.6 S 11 20 6 11 1019.1 - 0.0
29/01:30pm 24.2 22.3 14.2 53 5.9 SSW 17 20 9 11 1019.4 - 0.0
29/01:00pm 23.9 23.4 13.8 53 5.9 WSW 9 13 5 7 1019.9 - 0.0
29/12:30pm 24.0 23.9 13.9 53 5.9 NW 7 15 4 8 1020.3 - 0.0
29/12:00pm 23.8 23.8 14.1 54 5.7 WNW 7 15 4 8 1020.7 1020.7 0.0
29/11:30am 22.8 22.0 14.1 58 5.1 WSW 11 17 6 9 1021.2 - 0.0
29/11:00am 21.8 20.1 13.7 60 4.7 NW 15 20 8 11 1021.7 - 0.0
29/10:30am 20.6 19.8 14.0 66 3.8 W 11 17 6 9 1022.2 - 0.0
29/10:00am 19.5 18.5 13.5 68 3.4 WNW 11 15 6 8 1022.4 - 0.0
29/09:30am 19.2 19.3 14.5 74 2.7 NW 7 11 4 6 1022.5 - 0.0
29/09:00am 18.6 18.5 15.0 79 2.1 WNW 9 13 5 7 1022.6 1022.6 0.0
29/08:30am 17.8 17.3 14.9 83 1.7 WNW 11 15 6 8 1022.4 - 0.0
29/08:00am 17.5 17.2 15.4 87 1.2 WNW 11 15 6 8 1022.3 - 0.0
29/07:30am 17.0 16.3 15.5 91 0.9 WNW 13 15 7 8 1022.2 - 0.0
29/07:00am 16.0 15.6 15.3 96 0.4 NW 11 13 6 7 1022.1 - 0.0
29/06:30am 15.8 16.4 15.3 97 0.3 NNW 6 9 3 5 1022.2 - 0.0
29/06:00am 15.9 16.3 15.4 97 0.3 NNW 7 9 4 5 1022.0 1022.0 0.0
29/05:30am 15.6 15.9 15.1 97 0.3 NNW 7 7 4 4 1021.7 - 0.0
29/05:00am 16.5 17.0 15.6 94 0.5 W 7 9 4 5 1021.6 - 0.0
29/04:30am 16.4 17.0 15.7 96 0.4 W 7 9 4 5 1021.2 - 0.0
29/04:00am 16.6 16.7 15.6 94 0.6 W 9 13 5 7 1021.1 - 0.0
29/03:30am 16.6 17.3 15.6 94 0.6 NNW 6 7 3 4 1021.0 - 0.0
29/03:00am 16.3 16.8 15.6 96 0.4 N 7 9 4 5 1020.8 1020.8 0.0
29/02:30am 16.2 16.7 15.5 96 0.4 N 7 9 4 5 1020.8 - 0.0
29/02:00am 16.3 18.1 15.6 96 0.4 CALM 0 0 0 0 1020.9 - 0.0
29/01:30am 16.4 17.8 15.5 94 0.5 NNW 2 6 1 3 1021.0 - 0.0
29/01:00am 16.3 16.9 15.8 97 0.3 N 7 7 4 4 1021.2 - 0.0
29/12:30am 16.1 16.8 15.6 97 0.3 N 6 9 3 5 1021.1 - 0.0
29/12:00am 16.3 16.5 15.8 97 0.3 N 9 11 5 6 1021.1 1021.1 0.0
 
Date/Time
WST
Temp
°C
App
Temp
°C
Dew
Point
Rel
Hum
%
Delta-T
°C
Wind Press
QNH
hPa
Press
MSL
hPa
Rain
since 9 am
mm
Dir
 
Spd
km/h
Gust
km/h
Spd
kts
Gust
kts
28/11:30pm 15.1 15.4 14.9 99 0.1 N 7 7 4 4 1021.2 - 0.0
28/11:08pm 15.3 15.6 15.0 98 0.2 N 7 9 4 5 1021.3 - 0.0
28/11:00pm 15.2 16.0 14.9 98 0.2 NNW 4 7 2 4 1021.3 - 0.0
28/10:30pm 14.6 15.8 13.9 96 0.4 CALM 0 0 0 0 1021.3 - 0.0
28/10:21pm 15.3 16.9 14.8 97 0.3 CALM 0 0 0 0 1021.3 - 0.0
28/10:00pm 15.9 17.1 15.0 94 0.5 WNW 2 6 1 3 1021.4 - 0.0
28/09:30pm 16.4 18.2 15.5 94 0.5 CALM 0 0 0 0 1021.5 - 0.0
28/09:00pm 15.9 17.5 15.0 94 0.5 CALM 0 6 0 3 1021.6 1021.6 0.0
28/08:30pm 16.9 17.5 15.7 93 0.7 SSW 7 11 4 6 1021.3 - 0.0
28/08:00pm 17.1 17.2 15.4 90 1.0 SSW 9 11 5 6 1021.0 - 0.0
28/07:30pm 17.3 17.0 15.4 88 1.1 SW 11 15 6 8 1020.7 - 0.0
28/07:00pm 17.8 16.8 15.6 87 1.3 SW 15 20 8 11 1020.3 - 0.0
28/06:30pm 18.4 16.9 15.3 82 1.8 SW 17 22 9 12 1020.0 - 0.0
28/06:00pm 19.4 18.4 14.6 74 2.8 SW 13 17 7 9 1019.8 1019.8 0.0
28/05:30pm 20.6 18.5 13.6 64 4.0 SW 17 20 9 11 1019.7 - 0.0
28/05:00pm 20.8 18.2 13.7 64 4.1 SW 20 28 11 15 1019.6 - 0.0
28/04:30pm 22.5 20.6 13.1 55 5.4 SW 15 24 8 13 1019.3 - 0.0
28/04:00pm 22.4 19.9 12.4 53 5.7 SW 17 24 9 13 1019.4 - 0.0
28/03:30pm 23.1 20.1 12.0 49 6.3 WSW 19 26 10 14 1019.2 - 0.0
28/03:00pm 23.3 20.4 10.9 45 6.9 SW 17 28 9 15 1019.1 1019.1 0.0
28/02:30pm 23.1 19.7 10.6 45 6.9 SW 19 28 10 15 1019.1 - 0.0
28/02:00pm 23.0 20.0 10.5 45 6.9 SW 17 24 9 13 1019.2 - 0.0
28/01:30pm 22.8 20.1 10.2 44 6.9 SW 15 26 8 14 1019.4 - 0.0
28/01:00pm 22.4 19.8 10.6 47 6.5 SW 15 24 8 13 1019.8 - 0.0
28/12:30pm 22.4 19.2 9.9 45 6.8 W 17 22 9 12 1020.1 - 0.0
28/12:00pm 21.2 18.6 12.1 56 5.1 SW 17 24 9 13 1020.4 1020.4 0.0
28/11:30am 21.4 18.0 11.3 52 5.6 SW 20 28 11 15 1020.6 - 0.0
28/11:00am 21.4 18.1 10.8 50 5.8 SW 19 24 10 13 1020.6 - 0.0
28/10:30am 21.4 19.5 11.7 54 5.4 W 13 20 7 11 1020.5 - 0.0
28/10:00am 20.4 18.0 11.3 56 5.0 W 15 20 8 11 1020.6 - 0.0
28/09:30am 19.6 17.7 13.1 66 3.7 W 15 22 8 12 1020.7 - 0.0
28/09:00am 19.3 18.2 13.1 67 3.5 W 11 17 6 9 1020.7 1020.7 0.0
28/08:30am 18.8 17.3 13.1 69 3.2 W 13 20 7 11 1020.8 - 0.0
28/08:00am 17.9 17.0 13.7 76 2.4 WNW 11 15 6 8 1020.7 - 0.0
28/07:30am 16.7 16.4 14.4 86 1.3 W 9 11 5 6 1020.6 - 0.0
28/07:00am 15.9 15.3 14.7 93 0.7 W 11 15 6 8 1020.7 - 0.0
28/06:30am 15.6 14.9 14.4 93 0.7 W 11 13 6 7 1020.2 - 0.0
28/06:00am 16.7 16.2 15.0 90 1.0 W 11 17 6 9 1020.0 1020.0 0.0
28/05:30am 16.9 16.1 15.2 90 1.0 W 13 17 7 9 1019.8 - 0.0
28/05:00am 17.0 15.9 15.3 90 1.0 W 15 19 8 10 1019.5 - 0.0
28/04:30am 17.1 16.7 15.2 88 1.1 W 11 17 6 9 1019.2 - 0.0
28/04:00am 16.9 16.6 15.4 91 0.9 WNW 11 15 6 8 1019.1 - 0.0
28/03:30am 17.0 16.7 15.5 91 0.9 W 11 13 6 7 1018.9 - 0.0
28/03:00am 16.9 16.6 15.4 91 0.9 WNW 11 15 6 8 1018.9 1018.9 0.0
28/02:30am 16.8 16.1 15.3 91 0.9 WNW 13 15 7 8 1018.9 - 0.0
28/02:00am 16.9 16.2 15.5 91 0.8 W 13 15 7 8 1019.1 - 0.0
28/01:30am 16.6 16.6 15.2 91 0.8 WNW 9 11 5 6 1019.0 - 0.0
28/01:00am 16.5 16.0 14.8 90 1.0 NW 11 13 6 7 1019.3 - 0.0
28/12:30am 16.2 16.0 14.6 90 0.9 WNW 9 11 5 6 1019.3 - 0.0
28/12:00am 15.9 15.2 14.3 90 0.9 NW 11 11 6 6 1019.5 1019.5 0.0
 
Date/Time
WST
Temp
°C
App
Temp
°C
Dew
Point
Rel
Hum
%
Delta-T
°C
Wind Press
QNH
hPa
Press
MSL
hPa
Rain
since 9 am
mm
Dir
 
Spd
km/h
Gust
km/h
Spd
kts
Gust
kts
27/11:30pm 14.6 14.3 13.2 91 0.8 WNW 7 9 4 5 1019.6 - 0.0
27/11:00pm 15.7 15.2 13.7 88 1.1 NW 9 11 5 6 1019.5 - 0.0
27/10:59pm 15.7 15.2 13.9 89 1.0 NW 9 11 5 6 1019.5 - 0.0
27/10:30pm 15.1 15.0 13.9 92 0.7 WNW 7 9 4 5 1019.7 - 0.0
27/10:00pm 14.3 13.6 13.2 93 0.6 N 9 11 5 6 1019.9 - 0.0
27/09:30pm 14.2 13.5 13.1 93 0.6 N 9 13 5 7 1019.9 - 0.0
27/09:12pm 14.4 13.7 13.1 92 0.7 N 9 9 5 5 1019.9 - 0.0
27/09:00pm 14.1 13.3 13.0 93 0.6 N 9 11 5 6 1019.9 1019.9 0.0
27/08:30pm 13.9 14.7 12.6 92 0.7 CALM 0 6 0 3 1020.0 - 0.0
27/08:00pm 16.4 16.1 14.3 87 1.2 SW 9 11 5 6 1019.9 - 0.0
27/07:30pm 16.2 17.0 13.7 85 1.4 SSW 2 7 1 4 1019.7 - 0.0
27/07:00pm 17.0 18.1 13.6 80 1.9 CALM 0 0 0 0 1019.4 - 0.0
27/06:30pm 18.2 18.2 13.6 74 2.6 S 6 7 3 4 1019.2 - 0.0
27/06:00pm 19.8 18.7 13.1 65 3.8 SW 11 15 6 8 1019.0 1019.0 0.0
27/05:30pm 21.0 18.8 12.1 56 5.0 SW 15 17 8 9 1019.0 - 0.0
27/05:00pm 22.5 20.1 11.4 49 6.2 S 15 20 8 11 1018.8 - 0.0
27/04:30pm 23.7 20.8 11.0 44 7.1 SSW 17 22 9 12 1018.7 - 0.0
27/04:00pm 24.2 21.6 10.7 42 7.5 S 15 20 8 11 1018.6 - 0.0
27/03:30pm 25.0 22.3 10.2 39 8.2 SSW 15 20 8 11 1018.7 - 0.0
27/03:00pm 24.9 22.2 10.3 39 8.1 S 15 20 8 11 1018.7 1018.7 0.0
27/02:30pm 24.4 21.4 10.8 42 7.6 S 17 22 9 12 1019.0 - 0.0
27/02:00pm 25.1 23.4 11.3 42 7.8 WSW 11 28 6 15 1019.2 - 0.0
27/01:30pm 25.4 22.9 11.0 40 8.1 NNW 15 22 8 12 1019.3 - 0.0
27/01:00pm 25.2 21.8 9.2 36 8.7 WNW 17 24 9 13 1019.8 - 0.0
27/12:30pm 23.7 20.3 9.3 40 7.8 NW 17 20 9 11 1020.2 - 0.0
27/12:00pm 23.2 20.9 10.5 44 7.0 NW 13 17 7 9 1020.7 1020.7 0.0
27/11:30am 23.0 20.3 10.2 44 7.0 NW 15 20 8 11 1021.1 - 0.0
27/11:00am 23.3 20.0 9.7 42 7.4 NW 17 24 9 13 1021.2 - 0.0
27/10:30am 21.8 19.0 10.0 47 6.4 NNW 15 20 8 11 1021.5 - 0.0
27/10:00am 19.6 19.1 12.5 63 4.0 NNW 7 11 4 6 1021.8 - 0.0
27/09:30am 17.9 17.5 12.3 70 3.1 N 6 7 3 4 1021.9 - 0.0
27/09:00am 16.1 15.6 11.9 76 2.3 NNE 6 9 3 5 1021.9 1021.9 0.0
27/08:30am 14.7 15.2 11.5 81 1.7 CALM 0 6 0 3 1022.1 - 0.0
27/08:00am 14.4 13.6 11.2 81 1.7 ENE 6 7 3 4 1021.9 - 0.0
27/07:30am 13.8 13.1 11.5 86 1.2 ENE 6 7 3 4 1022.0 - 0.0
27/07:00am 13.3 12.3 11.0 86 1.2 NE 7 11 4 6 1022.1 - 0.0
27/06:30am 12.8 11.5 11.1 89 0.9 ENE 9 13 5 7 1022.0 - 0.0
27/06:00am 13.5 11.0 11.2 86 1.2 ENE 15 19 8 10 1021.9 1021.9 0.0
27/05:30am 13.8 11.5 11.7 87 1.1 ENE 15 20 8 11 1021.9 - 0.0
27/05:00am 14.0 11.5 12.3 89 0.9 ENE 17 20 9 11 1021.9 - 0.0
27/04:30am 14.2 11.4 12.7 91 0.8 ENE 19 20 10 11 1022.0 - 0.0
27/04:00am 14.1 12.3 13.2 94 0.5 ENE 15 19 8 10 1022.2 - 0.0
27/03:30am 14.2 12.8 13.3 94 0.5 ENE 13 17 7 9 1022.5 - 0.0
27/03:00am 14.5 12.3 13.4 93 0.6 ENE 17 20 9 11 1022.7 1022.7 0.0
27/02:30am 14.4 13.0 13.3 93 0.6 E 13 17 7 9 1023.0 - 0.0
27/02:00am 14.3 12.8 13.2 93 0.6 ENE 13 15 7 8 1023.5 - 0.0
27/01:30am 14.6 13.5 13.2 91 0.8 ENE 11 15 6 8 1023.7 - 0.0
27/01:00am 14.6 13.1 13.2 91 0.8 ENE 13 17 7 9 1023.9 - 0.0
27/12:30am 15.0 13.1 13.0 88 1.1 ENE 15 19 8 10 1024.1 - 0.0
27/12:00am 15.3 13.0 13.1 87 1.2 ENE 17 22 9 12 1024.3 1024.3 0.0
 
Date/Time
WST
Temp
°C
App
Temp
°C
Dew
Point
Rel
Hum
%
Delta-T
°C
Wind Press
QNH
hPa
Press
MSL
hPa
Rain
since 9 am
mm
Dir
 
Spd
km/h
Gust
km/h
Spd
kts
Gust
kts
26/11:30pm 15.6 13.0 13.1 85 1.4 ENE 19 22 10 12 1024.6 - 0.0
26/11:00pm 15.7 13.4 13.0 84 1.5 NE 17 22 9 12 1024.8 - 0.0
26/10:30pm 15.8 13.2 13.1 84 1.5 ENE 19 24 10 13 1024.9 - 0.0
26/10:00pm 15.6 13.3 12.9 84 1.5 ENE 17 20 9 11 1025.2 - 0.0
26/09:30pm 15.5 13.9 12.8 84 1.5 ENE 13 20 7 11 1025.2 - 0.0
26/09:00pm 15.4 13.0 12.7 84 1.5 ENE 17 20 9 11 1025.3 1025.3 0.0
26/08:30pm 15.7 13.7 12.6 82 1.7 E 15 19 8 10 1025.1 - 0.0
26/08:00pm 16.2 13.2 12.6 79 2.0 ENE 20 32 11 17 1025.3 - 0.0
26/07:30pm 16.4 13.4 12.4 77 2.2 ENE 20 28 11 15 1025.3 - 0.0
26/07:00pm 16.5 13.4 12.1 75 2.4 E 20 32 11 17 1025.1 - 0.0
26/06:30pm 17.0 13.8 11.9 72 2.8 ENE 20 30 11 16 1025.0 - 0.0
26/06:00pm 17.5 13.5 11.8 69 3.1 E 24 30 13 16 1024.9 1024.9 0.0
26/05:30pm 18.6 13.8 11.7 64 3.8 E 28 35 15 19 1024.5 - 0.0

Other Formats:

Comma delimited format used in spreadsheet applications
http://www.bom.gov.au/fwo/IDW60801/IDW60801.94802.axf

JavaScript Object Notation format (JSON) in row-major order
http://www.bom.gov.au/fwo/IDW60801/IDW60801.94802.json